createdAt,value
2019-06-20T00:04:55.478Z,10.38
2019-06-20T00:10:01.998Z,13.62
2019-06-20T00:15:08.409Z,11.57
2019-06-20T00:20:15.531Z,12.98
2019-06-20T00:25:22.249Z,15.53
2019-06-20T00:30:28.425Z,9.20
2019-06-20T00:35:34.456Z,12.55
2019-06-20T00:40:40.987Z,9.68
2019-06-20T00:45:47.371Z,9.00
2019-06-20T00:50:54.065Z,8.93
2019-06-20T00:56:00.578Z,8.87
2019-06-20T01:01:07.276Z,9.25
2019-06-20T01:06:13.380Z,9.58
2019-06-20T01:11:19.479Z,7.87
2019-06-20T01:16:25.932Z,8.68
2019-06-20T01:21:32.415Z,8.80
2019-06-20T01:26:38.858Z,9.28
2019-06-20T01:31:44.912Z,8.23
2019-06-20T01:36:51.031Z,8.13
2019-06-20T01:41:57.182Z,7.63
2019-06-20T01:47:03.397Z,9.35
2019-06-20T01:52:09.583Z,9.38
2019-06-20T01:57:15.756Z,11.78
2019-06-20T02:02:21.908Z,10.38
2019-06-20T02:07:28.504Z,9.87
2019-06-20T02:12:34.621Z,8.95
2019-06-20T02:17:41.176Z,8.15
2019-06-20T02:22:47.510Z,10.15
2019-06-20T02:27:53.692Z,7.55
2019-06-20T02:33:00.193Z,10.45
2019-06-20T02:38:06.354Z,9.35
2019-06-20T02:43:13.138Z,8.55
2019-06-20T02:48:19.317Z,10.35
2019-06-20T02:53:25.696Z,10.10
2019-06-20T02:58:31.933Z,9.15
2019-06-20T03:03:38.272Z,11.23
2019-06-20T03:08:44.328Z,10.80
2019-06-20T03:13:50.456Z,11.70
2019-06-20T03:18:56.591Z,11.93
2019-06-20T03:24:03.035Z,9.83
2019-06-20T03:29:09.464Z,11.87
2019-06-20T03:34:15.583Z,10.82
2019-06-20T03:39:21.794Z,11.18
2019-06-20T03:44:28.296Z,9.10
2019-06-20T03:49:35.089Z,11.50
2019-06-20T03:54:41.275Z,11.00
2019-06-20T03:59:47.446Z,8.50
2019-06-20T04:04:53.924Z,9.55
2019-06-20T04:10:00.091Z,9.60
2019-06-20T04:15:18.572Z,9.30
2019-06-20T04:20:14.593Z,9.75
2019-06-20T04:25:21.330Z,8.10
2019-06-20T04:30:27.807Z,7.22
2019-06-20T04:35:34.573Z,6.83
2019-06-20T04:40:40.956Z,8.33
2019-06-20T04:46:04.767Z,8.53
2019-06-20T04:51:10.868Z,9.83
2019-06-20T04:56:17.518Z,10.17
2019-06-20T05:01:24.308Z,9.00
2019-06-20T05:06:30.776Z,11.30
2019-06-20T05:11:37.170Z,9.37
2019-06-20T05:16:43.557Z,9.83
2019-06-20T05:21:50.008Z,10.55
2019-06-20T05:26:56.934Z,8.33
2019-06-20T05:32:03.444Z,7.30
2019-06-20T05:37:09.550Z,7.92
2019-06-20T05:42:15.766Z,8.95
2019-06-20T05:47:22.138Z,9.43
2019-06-20T05:52:28.611Z,8.60
2019-06-20T05:57:34.653Z,10.60
2019-06-20T06:02:40.765Z,11.95
2019-06-20T06:07:47.947Z,7.37
2019-06-20T06:12:54.495Z,5.90
2019-06-20T06:18:00.596Z,9.90
2019-06-20T06:23:06.729Z,8.73
2019-06-20T06:28:13.228Z,10.58
2019-06-20T06:33:19.336Z,10.43
2019-06-20T06:38:25.692Z,11.37
2019-06-20T06:43:31.793Z,9.38
2019-06-20T06:48:37.905Z,7.67
2019-06-20T06:53:44.000Z,6.93
2019-06-20T06:58:50.056Z,8.50
2019-06-20T07:03:56.164Z,10.40
2019-06-20T07:09:04.373Z,7.65
2019-06-20T07:14:10.587Z,8.53
2019-06-20T07:19:18.034Z,10.57
2019-06-20T07:24:24.162Z,10.17
2019-06-20T07:29:31.171Z,10.10
2019-06-20T07:34:37.639Z,8.20
2019-06-20T07:39:44.202Z,7.70
2019-06-20T07:44:51.052Z,10.70
2019-06-20T07:49:57.120Z,9.80
2019-06-20T07:55:03.788Z,8.93
2019-06-20T08:00:11.912Z,10.67
2019-06-20T08:05:18.700Z,10.43
2019-06-20T08:10:25.288Z,8.73
2019-06-20T08:15:32.599Z,8.67
2019-06-20T08:20:38.791Z,9.98
2019-06-20T08:25:44.965Z,8.78
2019-06-20T08:30:51.213Z,9.63
2019-06-20T08:35:58.763Z,11.13
2019-06-20T08:41:06.546Z,11.00
2019-06-20T08:46:13.351Z,10.70
2019-06-20T08:51:19.928Z,10.90
2019-06-20T08:56:26.324Z,11.07
2019-06-20T09:01:32.480Z,10.85
2019-06-20T09:06:38.978Z,8.68
2019-06-20T09:11:45.553Z,10.03
2019-06-20T09:16:52.285Z,9.50
2019-06-20T09:22:00.492Z,7.65
2019-06-20T09:27:06.813Z,8.58
2019-06-20T09:32:13.530Z,8.90
2019-06-20T09:37:20.031Z,8.48
2019-06-20T09:42:26.606Z,11.93
2019-06-20T09:47:32.873Z,8.30
2019-06-20T09:52:39.164Z,6.73
2019-06-20T09:57:47.323Z,8.53
2019-06-20T10:02:55.902Z,6.37
2019-06-20T10:08:03.146Z,7.08
2019-06-20T10:13:09.439Z,7.80
2019-06-20T10:18:15.570Z,10.60
2019-06-20T10:23:22.063Z,5.30
2019-06-20T10:28:28.452Z,5.63
2019-06-20T10:33:35.033Z,5.60
2019-06-20T10:38:41.587Z,3.77
2019-06-20T10:43:47.690Z,3.65
2019-06-20T10:48:53.875Z,2.52
2019-06-20T10:54:00.357Z,3.27
2019-06-20T10:59:06.721Z,3.07
2019-06-20T11:04:13.016Z,2.20
2019-06-20T11:09:19.508Z,2.80
2019-06-20T11:14:25.908Z,1.73
2019-06-20T11:19:32.157Z,1.57
2019-06-20T11:24:39.223Z,1.63
2019-06-20T11:29:46.553Z,1.65
2019-06-20T11:34:53.054Z,2.13
2019-06-20T11:39:59.236Z,1.52
2019-06-20T11:45:06.871Z,2.97
2019-06-20T11:50:13.676Z,2.10
2019-06-20T11:55:20.058Z,2.40
2019-06-20T12:00:26.856Z,1.82
2019-06-20T12:05:33.702Z,2.80
2019-06-20T12:10:40.894Z,1.93
2019-06-20T12:15:47.180Z,2.37
2019-06-20T12:20:53.574Z,3.10
2019-06-20T12:25:59.747Z,2.42
2019-06-20T12:31:18.501Z,2.07
2019-06-20T12:36:13.919Z,2.23
2019-06-20T12:41:19.954Z,2.20
2019-06-20T12:46:26.029Z,3.27
2019-06-20T12:51:32.877Z,2.73
2019-06-20T12:56:40.284Z,2.13
2019-06-20T13:01:48.393Z,2.33
2019-06-20T13:06:55.457Z,2.45
2019-06-20T13:12:01.916Z,3.33
2019-06-20T13:17:08.505Z,3.58
2019-06-20T13:22:14.965Z,2.27
2019-06-20T13:27:21.349Z,2.30
2019-06-20T13:32:27.731Z,3.03
2019-06-20T13:37:34.236Z,2.07
2019-06-20T13:42:42.110Z,2.53
2019-06-20T13:47:49.786Z,3.12
2019-06-20T13:52:56.288Z,3.90
2019-06-20T13:58:02.819Z,3.10
2019-06-20T14:03:09.150Z,3.05
2019-06-20T14:08:15.589Z,4.97
2019-06-20T14:13:22.172Z,5.70
2019-06-20T14:18:28.861Z,2.92
2019-06-20T14:23:34.988Z,3.50
2019-06-20T14:28:43.109Z,3.77
2019-06-20T14:33:50.732Z,3.60
2019-06-20T14:38:57.555Z,2.77
2019-06-20T14:44:04.062Z,4.08
2019-06-20T14:49:10.211Z,2.60
2019-06-20T14:54:19.602Z,1.93
2019-06-20T14:59:24.626Z,1.57
2019-06-20T15:04:30.888Z,2.27
2019-06-20T15:09:37.359Z,2.20
2019-06-20T15:14:44.527Z,2.10
2019-06-20T15:19:53.016Z,2.52
2019-06-20T15:25:00.883Z,1.77
2019-06-20T15:30:08.665Z,2.55
2019-06-20T15:35:15.291Z,2.70
2019-06-20T15:40:21.927Z,2.25
2019-06-20T15:45:28.190Z,2.77
2019-06-20T15:50:34.427Z,4.12
2019-06-20T15:55:40.598Z,2.40
2019-06-20T16:00:47.052Z,2.65
2019-06-20T16:05:53.251Z,2.40
2019-06-20T16:10:59.740Z,2.42
2019-06-20T16:16:06.008Z,3.07
2019-06-20T16:21:12.378Z,2.00
2019-06-20T16:26:19.231Z,2.47
2019-06-20T16:31:27.089Z,1.95
2019-06-20T16:36:33.207Z,1.77
2019-06-20T16:41:39.384Z,2.30
2019-06-20T16:46:45.567Z,2.35
2019-06-20T16:51:52.108Z,2.08
2019-06-20T16:56:58.207Z,2.10
2019-06-20T17:02:04.593Z,1.60
2019-06-20T17:07:10.951Z,1.70
2019-06-20T17:12:17.425Z,1.90
2019-06-20T17:17:23.607Z,2.62
2019-06-20T17:22:30.093Z,2.98
2019-06-20T17:27:36.275Z,2.15
2019-06-20T17:32:42.756Z,2.50
2019-06-20T17:37:49.947Z,1.63
2019-06-20T17:42:56.123Z,1.87
2019-06-20T17:48:02.280Z,2.17
2019-06-20T17:53:08.914Z,2.33
2019-06-20T17:58:15.278Z,1.60
2019-06-20T18:03:21.657Z,1.98
2019-06-20T18:08:27.759Z,2.27
2019-06-20T18:13:33.795Z,2.72
2019-06-20T18:18:39.864Z,2.72
2019-06-20T18:23:46.269Z,2.33
2019-06-20T18:28:52.306Z,3.02
2019-06-20T18:33:58.833Z,3.20
2019-06-20T18:39:07.179Z,2.25
2019-06-20T18:44:13.213Z,4.28
2019-06-20T18:49:19.659Z,2.55
2019-06-20T18:54:25.760Z,3.83
2019-06-20T18:59:32.840Z,2.83
2019-06-20T19:04:47.882Z,3.77
2019-06-20T19:09:47.872Z,2.47
2019-06-20T19:14:54.024Z,4.23
2019-06-20T19:20:01.010Z,4.78
2019-06-20T19:25:07.583Z,3.47
2019-06-20T19:30:14.577Z,2.37
2019-06-20T19:35:20.752Z,3.35
2019-06-20T19:40:30.040Z,3.77
2019-06-20T19:45:36.266Z,4.17
2019-06-20T19:50:42.499Z,3.35
2019-06-20T19:55:49.351Z,4.25
2019-06-20T20:00:55.485Z,3.10
2019-06-20T20:06:02.008Z,4.00
2019-06-20T20:11:08.400Z,3.80
2019-06-20T20:16:15.191Z,3.20
2019-06-20T20:21:21.613Z,2.80
2019-06-20T20:26:27.941Z,3.37
2019-06-20T20:31:33.976Z,4.25
2019-06-20T20:36:40.651Z,4.67
2019-06-20T20:41:46.743Z,3.98
2019-06-20T20:46:52.845Z,5.17
2019-06-20T20:51:58.887Z,4.93
2019-06-20T20:57:05.443Z,6.03
2019-06-20T21:02:12.342Z,5.08
2019-06-20T21:07:18.736Z,6.40
2019-06-20T21:12:24.845Z,4.65
2019-06-20T21:17:31.034Z,4.40
2019-06-20T21:22:37.638Z,1.80
2019-06-20T21:27:44.019Z,4.05
2019-06-20T21:32:50.117Z,2.50
2019-06-20T21:37:56.902Z,3.20
2019-06-20T21:43:03.007Z,3.07
2019-06-20T21:48:09.446Z,7.13
2019-06-20T21:53:15.577Z,5.45
2019-06-20T21:58:22.116Z,5.80
2019-06-20T22:03:28.683Z,5.37
2019-06-20T22:08:35.104Z,2.25
2019-06-20T22:13:43.841Z,2.60
2019-06-20T22:18:50.224Z,1.73
2019-06-20T22:23:56.286Z,1.42
2019-06-20T22:29:03.066Z,6.40
2019-06-20T22:34:09.756Z,3.00
2019-06-20T22:39:16.264Z,3.07
2019-06-20T22:44:22.456Z,2.80
2019-06-20T22:49:28.808Z,4.03
2019-06-20T22:54:34.998Z,2.80
2019-06-20T22:59:41.769Z,3.67
2019-06-20T23:04:47.928Z,2.33
2019-06-20T23:10:09.378Z,4.80
2019-06-20T23:15:03.095Z,6.12
2019-06-20T23:20:09.803Z,4.28
2019-06-20T23:25:16.111Z,2.83
2019-06-20T23:30:23.282Z,3.90
2019-06-20T23:35:29.771Z,5.80
2019-06-20T23:40:36.313Z,12.37
2019-06-20T23:45:42.794Z,4.95
2019-06-20T23:50:49.301Z,5.10
2019-06-20T23:55:55.894Z,4.70
